San Gennaro — IIOT2 — position and weather

sailwx.info

Track history (hours):
 
Tides and Currents Weather Stations Pressure Air Temp Water Temp Dewpoint Dewpoint Depression Visibility Wind Speed Wind Dir Waves Ship Positions

San Gennaro

Last reported at 2014-Jul-26 10:34 UTC. Time now 2014-Jul-26 17:13 UTC.
Position N 40°50' E 014°18'.

Length 27 m; draft 5.2 m.

Type: Tug. MMSI: 247295700.

Date/timePositionNaut miles runAvg speedWind from/ knotsBaromVisibWave heightAir tempDewpointWater temp
2014-Jul-26 10:34N 40°50' E 014°18'2 0.3
2014-Jul-26 04:31N 40°51' E 014°16'0 0.0
2014-Jul-26 03:33N 40°51' E 014°16'0 0.0
2014-Jul-26 01:28N 40°51' E 014°16'0 0.0
2014-Jul-26 00:31N 40°51' E 014°16'0 0.0
2014-Jul-25 23:12N 40°51' E 014°16'1 1.6
2014-Jul-25 22:33N 40°50' E 014°17'0 0.0
2014-Jul-25 21:27N 40°50' E 014°17'1 0.2
2014-Jul-25 15:29N 40°51' E 014°16'0 0.2
2014-Jul-25 14:28N 40°50' E 014°16'2 2.3
2014-Jul-25 13:34N 40°49' E 014°18'2 2.2
2014-Jul-25 12:32N 40°51' E 014°16'1 0.6
2014-Jul-25 11:22N 40°50' E 014°17'0 0.1
2014-Jul-25 08:33N 40°50' E 014°17'0 0.4
2014-Jul-25 07:28N 40°50' E 014°17'0 0.5
2014-Jul-25 06:34N 40°50' E 014°17'1 0.1
2014-Jul-24 08:30N 40°51' E 014°16'0 0.0
2014-Jul-24 07:04N 40°51' E 014°16'1 1.2
2014-Jul-24 06:33N 40°50' E 014°17'1 0.3
2014-Jul-24 04:19N 40°51' E 014°16'1 0.1
2014-Jul-23 13:34N 40°50' E 014°17'1 0.0
2014-Jul-22 10:22N 40°50' E 014°16'1 1.7
2014-Jul-22 09:32N 40°50' E 014°18'1 0.3
2014-Jul-22 06:32N 40°50' E 014°17'1 0.1
2014-Jul-21 22:08N 40°50' E 014°16'1 1.4
2014-Jul-21 21:33N 40°50' E 014°17'0 0.2
2014-Jul-21 20:30N 40°50' E 014°17'1 0.5
2014-Jul-21 18:28N 40°50' E 014°16'910.0
2014-Jul-21 17:33N 40°44' E 014°25'5 3.9
2014-Jul-21 16:23N 40°47' E 014°20'5 4.0
2014-Jul-21 15:13N 40°50' E 014°16'0 0.1
2014-Jul-21 11:24N 40°51' E 014°16'0 0.0
2014-Jul-21 06:29N 40°51' E 014°16'0 0.0
2014-Jul-21 05:29N 40°51' E 014°16'0 0.0
2014-Jul-21 04:07N 40°51' E 014°16'0 0.0
2014-Jul-21 03:33N 40°51' E 014°16'0 0.0
2014-Jul-21 02:33N 40°51' E 014°16'0 0.0
2014-Jul-21 01:23N 40°51' E 014°16'0 0.0
2014-Jul-21 00:33N 40°51' E 014°16'0 0.0
2014-Jul-20 23:33N 40°51' E 014°16'0 0.0
2014-Jul-20 22:26N 40°51' E 014°16'0 0.0
2014-Jul-20 21:33N 40°51' E 014°16'0 0.0
2014-Jul-20 19:33N 40°51' E 014°16'0 0.0
2014-Jul-20 18:33N 40°51' E 014°16'0 0.0
2014-Jul-20 17:33N 40°51' E 014°16'0 0.0
2014-Jul-20 16:33N 40°51' E 014°16'0 0.0
2014-Jul-20 15:33N 40°51' E 014°16'0 0.0
2014-Jul-20 14:33N 40°51' E 014°16'0 0.0
2014-Jul-20 13:33N 40°51' E 014°16'0 0.0
2014-Jul-20 12:33N 40°51' E 014°16'0 0.0
2014-Jul-20 11:33N 40°51' E 014°16'0 0.0
2014-Jul-20 10:30N 40°51' E 014°16'0 0.0
2014-Jul-20 09:33N 40°51' E 014°16'0 0.0
2014-Jul-20 08:33N 40°51' E 014°16'0 0.0
2014-Jul-20 07:32N 40°51' E 014°16'0 0.0
2014-Jul-20 06:33N 40°51' E 014°16'0 0.0
2014-Jul-20 04:32N 40°51' E 014°16'0 0.0
2014-Jul-20 01:33N 40°51' E 014°16'0 0.0
2014-Jul-19 20:32N 40°51' E 014°16'0 0.0
2014-Jul-19 19:33N 40°51' E 014°16'0 0.0
2014-Jul-19 18:33N 40°51' E 014°16'0 0.0
2014-Jul-19 17:33N 40°51' E 014°16'0 0.0
2014-Jul-19 16:33N 40°51' E 014°16'0 0.0
2014-Jul-19 14:33N 40°51' E 014°16'0 0.0
2014-Jul-19 13:07N 40°51' E 014°16'0 0.0
2014-Jul-19 12:33N 40°51' E 014°16'0 0.0
2014-Jul-19 11:33N 40°51' E 014°16'0 0.0
2014-Jul-19 10:33N 40°51' E 014°16'0 0.0
2014-Jul-19 09:33N 40°51' E 014°16'0 0.0
2014-Jul-19 08:29N 40°51' E 014°16'0 0.0
2014-Jul-18 15:31N 40°51' E 014°16'0 0.0
2014-Jul-18 13:32N 40°51' E 014°16'0 0.1
2014-Jul-18 12:33N 40°51' E 014°16'0 0.1
2014-Jul-18 11:33N 40°51' E 014°16'0 0.3
2014-Jul-18 10:25N 40°50' E 014°16'0 0.4
2014-Jul-18 09:32N 40°51' E 014°16'1 0.3
2014-Jul-18 07:21N 40°50' E 014°17'1 0.1
2014-Jul-18 02:12N 40°51' E 014°16'0 0.0
2014-Jul-17 23:19N 40°50' E 014°16'0 0.1
2014-Jul-17 21:31N 40°51' E 014°16'0 0.0
2014-Jul-17 20:33N 40°51' E 014°16'0 0.0
2014-Jul-17 19:33N 40°51' E 014°16'0 0.0
2014-Jul-17 18:18N 40°51' E 014°16'0 0.0
2014-Jul-17 17:33N 40°51' E 014°16'0 0.0
2014-Jul-17 15:13N 40°51' E 014°16'0 0.0
2014-Jul-17 14:21N 40°51' E 014°16'0 0.0
2014-Jul-17 13:33N 40°51' E 014°16'0 0.0
2014-Jul-17 12:33N 40°51' E 014°16'0 0.0
2014-Jul-17 11:29N 40°51' E 014°16'0 0.0
2014-Jul-17 10:33N 40°51' E 014°16'0 0.0
2014-Jul-17 09:33N 40°51' E 014°16'0 0.0
2014-Jul-17 08:33N 40°51' E 014°16'1 0.1
2014-Jul-16 16:33N 40°50' E 014°18'1 0.9
2014-Jul-16 15:31N 40°50' E 014°16'0 0.1
2014-Jul-16 14:33N 40°50' E 014°17'  
Track history (hours):
 
Tides and Currents Weather Stations Pressure Air Temp Water Temp Dewpoint Dewpoint Depression Visibility Wind Speed Wind Dir Waves Ship Positions

San Gennaro

Last reported at 2014-Jul-26 10:34 UTC. Time now 2014-Jul-26 17:13 UTC.
Position N 40°50' E 014°18'.

Length 27 m; draft 5.2 m.

Type: Tug. MMSI: 247295700.

Date/timePositionNaut miles runAvg speedWind from/ knotsBaromVisibWave heightAir tempDewpointWater temp
2014-Jul-26 10:34N 40°50' E 014°18'2 0.3
2014-Jul-26 04:31N 40°51' E 014°16'0 0.0
2014-Jul-26 03:33N 40°51' E 014°16'0 0.0
2014-Jul-26 01:28N 40°51' E 014°16'0 0.0
2014-Jul-26 00:31N 40°51' E 014°16'0 0.0
2014-Jul-25 23:12N 40°51' E 014°16'1 1.6
2014-Jul-25 22:33N 40°50' E 014°17'0 0.0
2014-Jul-25 21:27N 40°50' E 014°17'1 0.2
2014-Jul-25 15:29N 40°51' E 014°16'0 0.2
2014-Jul-25 14:28N 40°50' E 014°16'2 2.3
2014-Jul-25 13:34N 40°49' E 014°18'2 2.2
2014-Jul-25 12:32N 40°51' E 014°16'1 0.6
2014-Jul-25 11:22N 40°50' E 014°17'0 0.1
2014-Jul-25 08:33N 40°50' E 014°17'0 0.4
2014-Jul-25 07:28N 40°50' E 014°17'0 0.5
2014-Jul-25 06:34N 40°50' E 014°17'1 0.1
2014-Jul-24 08:30N 40°51' E 014°16'0 0.0
2014-Jul-24 07:04N 40°51' E 014°16'1 1.2
2014-Jul-24 06:33N 40°50' E 014°17'1 0.3
2014-Jul-24 04:19N 40°51' E 014°16'1 0.1
2014-Jul-23 13:34N 40°50' E 014°17'1 0.0
2014-Jul-22 10:22N 40°50' E 014°16'1 1.7
2014-Jul-22 09:32N 40°50' E 014°18'1 0.3
2014-Jul-22 06:32N 40°50' E 014°17'1 0.1
2014-Jul-21 22:08N 40°50' E 014°16'1 1.4
2014-Jul-21 21:33N 40°50' E 014°17'0 0.2
2014-Jul-21 20:30N 40°50' E 014°17'1 0.5
2014-Jul-21 18:28N 40°50' E 014°16'910.0
2014-Jul-21 17:33N 40°44' E 014°25'5 3.9
2014-Jul-21 16:23N 40°47' E 014°20'5 4.0
2014-Jul-21 15:13N 40°50' E 014°16'0 0.1
2014-Jul-21 11:24N 40°51' E 014°16'0 0.0
2014-Jul-21 06:29N 40°51' E 014°16'0 0.0
2014-Jul-21 05:29N 40°51' E 014°16'0 0.0
2014-Jul-21 04:07N 40°51' E 014°16'0 0.0
2014-Jul-21 03:33N 40°51' E 014°16'0 0.0
2014-Jul-21 02:33N 40°51' E 014°16'0 0.0
2014-Jul-21 01:23N 40°51' E 014°16'0 0.0
2014-Jul-21 00:33N 40°51' E 014°16'0 0.0
2014-Jul-20 23:33N 40°51' E 014°16'0 0.0
2014-Jul-20 22:26N 40°51' E 014°16'0 0.0
2014-Jul-20 21:33N 40°51' E 014°16'0 0.0
2014-Jul-20 19:33N 40°51' E 014°16'0 0.0
2014-Jul-20 18:33N 40°51' E 014°16'0 0.0
2014-Jul-20 17:33N 40°51' E 014°16'0 0.0
2014-Jul-20 16:33N 40°51' E 014°16'0 0.0
2014-Jul-20 15:33N 40°51' E 014°16'0 0.0
2014-Jul-20 14:33N 40°51' E 014°16'0 0.0
2014-Jul-20 13:33N 40°51' E 014°16'0 0.0
2014-Jul-20 12:33N 40°51' E 014°16'0 0.0
2014-Jul-20 11:33N 40°51' E 014°16'0 0.0
2014-Jul-20 10:30N 40°51' E 014°16'0 0.0
2014-Jul-20 09:33N 40°51' E 014°16'0 0.0
2014-Jul-20 08:33N 40°51' E 014°16'0 0.0
2014-Jul-20 07:32N 40°51' E 014°16'0 0.0
2014-Jul-20 06:33N 40°51' E 014°16'0 0.0
2014-Jul-20 04:32N 40°51' E 014°16'0 0.0
2014-Jul-20 01:33N 40°51' E 014°16'0 0.0
2014-Jul-19 20:32N 40°51' E 014°16'0 0.0
2014-Jul-19 19:33N 40°51' E 014°16'0 0.0
2014-Jul-19 18:33N 40°51' E 014°16'0 0.0
2014-Jul-19 17:33N 40°51' E 014°16'0 0.0
2014-Jul-19 16:33N 40°51' E 014°16'0 0.0
2014-Jul-19 14:33N 40°51' E 014°16'0 0.0
2014-Jul-19 13:07N 40°51' E 014°16'0 0.0
2014-Jul-19 12:33N 40°51' E 014°16'0 0.0
2014-Jul-19 11:33N 40°51' E 014°16'0 0.0
2014-Jul-19 10:33N 40°51' E 014°16'0 0.0
2014-Jul-19 09:33N 40°51' E 014°16'0 0.0
2014-Jul-19 08:29N 40°51' E 014°16'0 0.0
2014-Jul-18 15:31N 40°51' E 014°16'0 0.0
2014-Jul-18 13:32N 40°51' E 014°16'0 0.1
2014-Jul-18 12:33N 40°51' E 014°16'0 0.1
2014-Jul-18 11:33N 40°51' E 014°16'0 0.3
2014-Jul-18 10:25N 40°50' E 014°16'0 0.4
2014-Jul-18 09:32N 40°51' E 014°16'1 0.3
2014-Jul-18 07:21N 40°50' E 014°17'1 0.1
2014-Jul-18 02:12N 40°51' E 014°16'0 0.0
2014-Jul-17 23:19N 40°50' E 014°16'0 0.1
2014-Jul-17 21:31N 40°51' E 014°16'0 0.0
2014-Jul-17 20:33N 40°51' E 014°16'0 0.0
2014-Jul-17 19:33N 40°51' E 014°16'0 0.0
2014-Jul-17 18:18N 40°51' E 014°16'0 0.0
2014-Jul-17 17:33N 40°51' E 014°16'0 0.0
2014-Jul-17 15:13N 40°51' E 014°16'0 0.0
2014-Jul-17 14:21N 40°51' E 014°16'0 0.0
2014-Jul-17 13:33N 40°51' E 014°16'0 0.0
2014-Jul-17 12:33N 40°51' E 014°16'0 0.0
2014-Jul-17 11:29N 40°51' E 014°16'0 0.0
2014-Jul-17 10:33N 40°51' E 014°16'0 0.0
2014-Jul-17 09:33N 40°51' E 014°16'0 0.0
2014-Jul-17 08:33N 40°51' E 014°16'1 0.1
2014-Jul-16 16:33N 40°50' E 014°18'1 0.9
2014-Jul-16 15:31N 40°50' E 014°16'0 0.1
2014-Jul-16 14:33N 40°50' E 014°17'  

Dump ship's entire track history